map of KNMM home
KNMM - Airport
Location
City:  Meridian, Mississippi, United States
Name:NAS Meridian
Old (Alt.):McCain Field
ICAO:KNMM
FAA LID:NMM

Details
Type:Airport (Airfield)
Use:Military
Latitude:3233'13"N (32.553481)
Longitude:8833'19"W (-88.555263)
Datum:WGS 1984
Elevation:315 ft (96 m)
Variation:2.19W (WMM2015v2 magnetic declination)
-0.08 annual change
Runways:3
Longest:8003 × 200 ft (2439 × 61 m), paved

Time
Time Zone:UTC-6 (DST-5)
Local Time:

Weather
METAR:KNMM 041356Z 18003KT 9SM OVC004 16/15 A3004 RMK AO2 RAE02 SLP181 P0000 T01560150

Related Locations
Nearby:
Farthest:MQZ: 11074 mi / 17822 km
Margaret River [Margaret River Airport], WA, AU

Find:

   beyond  
but within

Other Information
Maps:
NOTAMs:
Links:
Sources:

  
  • flag of United States
  • flag of Mississippi
  

Airport Diagram

Airport diagram for KNMM

Airport diagram PDF from FAA

Sectional Chart

Flight Planning
at skyvector.com

Satellite Image

Google Maps Satellite view

 

Copyright © 2004-2019 Karl L. Swartz. All rights reserved.
The Great Circle Mapper name and logo are trademarks of the Great Circle Mapper.
All other trademarks mentioned herein belong to their respective owners.
Please see credits for attibutions and further copyright information.

  Follow gcmap on Facebook Follow gcmap on Twitter GCmap on LinkedIn

hCard Microformat

Geo Microformat